createdAt,value
2018-07-23T00:01:26.164Z,15.97
2018-07-23T00:03:54.598Z,14.93
2018-07-23T00:06:23.100Z,15.23
2018-07-23T00:08:51.598Z,15.63
2018-07-23T00:11:20.139Z,15.87
2018-07-23T00:13:52.664Z,14.40
2018-07-23T00:16:21.142Z,13.50
2018-07-23T00:18:49.583Z,14.43
2018-07-23T00:21:18.022Z,15.50
2018-07-23T00:23:46.496Z,18.50
2018-07-23T00:26:15.024Z,13.53
2018-07-23T00:28:43.460Z,15.50
2018-07-23T00:31:11.879Z,16.27
2018-07-23T00:33:40.307Z,18.47
2018-07-23T00:36:08.790Z,18.53
2018-07-23T00:38:38.181Z,19.47
2018-07-23T00:41:06.681Z,12.93
2018-07-23T00:43:35.148Z,16.77
2018-07-23T00:46:03.694Z,16.10
2018-07-23T00:48:32.169Z,14.13
2018-07-23T00:51:00.653Z,14.47
2018-07-23T00:53:29.175Z,16.60
2018-07-23T00:55:57.708Z,16.30
2018-07-23T00:58:26.147Z,15.07
2018-07-23T01:00:54.635Z,17.23
2018-07-23T01:03:23.120Z,16.57
2018-07-23T01:05:51.530Z,18.30
2018-07-23T01:08:20.120Z,17.83
2018-07-23T01:10:48.667Z,15.07
2018-07-23T01:13:17.153Z,17.20
2018-07-23T01:15:45.666Z,19.30
2018-07-23T01:18:14.214Z,15.13
2018-07-23T01:20:42.724Z,16.50
2018-07-23T01:23:11.328Z,15.37
2018-07-23T01:25:39.864Z,16.73
2018-07-23T01:28:08.385Z,15.40
2018-07-23T01:30:36.834Z,18.57
2018-07-23T01:33:05.281Z,16.27
2018-07-23T01:35:34.388Z,15.27
2018-07-23T01:38:02.879Z,14.00
2018-07-23T01:40:31.360Z,17.30
2018-07-23T01:42:59.842Z,12.47
2018-07-23T01:45:28.294Z,13.47
2018-07-23T01:47:56.724Z,18.43
2018-07-23T01:50:25.217Z,15.27
2018-07-23T01:52:53.742Z,17.17
2018-07-23T01:55:22.169Z,21.13
2018-07-23T01:57:50.737Z,19.63
2018-07-23T02:00:19.281Z,14.80
2018-07-23T02:02:47.752Z,13.30
2018-07-23T02:05:16.203Z,18.67
2018-07-23T02:07:44.755Z,17.00
2018-07-23T02:10:13.220Z,16.90
2018-07-23T02:12:41.729Z,18.37
2018-07-23T02:15:10.201Z,18.57
2018-07-23T02:17:38.725Z,15.87
2018-07-23T02:20:07.269Z,18.90
2018-07-23T02:22:35.764Z,20.10
2018-07-23T02:25:04.338Z,19.90
2018-07-23T02:27:32.860Z,20.53
2018-07-23T02:30:01.508Z,18.70
2018-07-23T02:32:29.989Z,16.87
2018-07-23T02:34:58.461Z,18.37
2018-07-23T02:37:26.968Z,20.17
2018-07-23T02:39:55.434Z,22.87
2018-07-23T02:42:23.948Z,21.40
2018-07-23T02:44:52.510Z,19.83
2018-07-23T02:47:20.962Z,17.90
2018-07-23T02:49:49.415Z,16.57
2018-07-23T02:52:17.959Z,19.97
2018-07-23T02:54:46.427Z,19.53
2018-07-23T02:57:14.926Z,19.13
2018-07-23T02:59:43.404Z,19.30
2018-07-23T03:02:11.921Z,19.50
2018-07-23T03:04:40.490Z,20.57
2018-07-23T03:07:09.047Z,18.90
2018-07-23T03:09:37.526Z,17.73
2018-07-23T03:12:06.081Z,16.97
2018-07-23T03:14:36.037Z,19.47
2018-07-23T03:17:04.613Z,19.37
2018-07-23T03:19:33.030Z,18.47
2018-07-23T03:22:01.654Z,15.83
2018-07-23T03:24:38.456Z,16.20
2018-07-23T03:27:06.937Z,17.53
2018-07-23T03:29:35.418Z,15.50
2018-07-23T03:32:03.919Z,16.00
2018-07-23T03:34:32.358Z,18.20
2018-07-23T03:37:00.944Z,17.97
2018-07-23T03:39:29.471Z,18.17
2018-07-23T03:41:58.028Z,19.43
2018-07-23T03:44:26.526Z,20.23
2018-07-23T03:46:55.104Z,19.80
2018-07-23T03:49:23.600Z,18.33
2018-07-23T03:52:27.108Z,19.87
2018-07-23T03:54:55.558Z,18.53
2018-07-23T03:57:24.055Z,20.90
2018-07-23T03:59:52.629Z,21.07
2018-07-23T04:02:21.063Z,21.43
2018-07-23T04:04:49.501Z,22.40
2018-07-23T04:07:17.976Z,21.03
2018-07-23T04:09:46.446Z,21.40
2018-07-23T04:12:14.946Z,20.10
2018-07-23T04:14:43.484Z,19.43
2018-07-23T04:17:12.001Z,20.13
2018-07-23T04:19:40.477Z,20.07
2018-07-23T04:22:08.979Z,22.33
2018-07-23T04:24:37.458Z,22.60
2018-07-23T04:27:05.937Z,19.23
2018-07-23T04:29:34.360Z,24.17
2018-07-23T04:32:02.878Z,21.67
2018-07-23T04:34:31.293Z,21.73
2018-07-23T04:36:59.889Z,23.17
2018-07-23T04:39:28.425Z,21.87
2018-07-23T04:41:56.957Z,20.13
2018-07-23T04:44:25.499Z,21.13
2018-07-23T04:46:53.981Z,21.47
2018-07-23T04:49:22.517Z,22.50
2018-07-23T04:51:51.053Z,21.87
2018-07-23T04:54:19.646Z,21.80
2018-07-23T04:56:48.249Z,20.50
2018-07-23T04:59:16.646Z,20.60
2018-07-23T05:01:45.106Z,20.13
2018-07-23T05:04:13.574Z,20.00
2018-07-23T05:06:50.924Z,21.20
2018-07-23T05:09:19.439Z,19.17
2018-07-23T05:11:47.977Z,19.37
2018-07-23T05:14:16.553Z,18.50
2018-07-23T05:16:44.993Z,19.10
2018-07-23T05:19:13.575Z,20.27
2018-07-23T05:21:42.162Z,20.23
2018-07-23T05:24:10.626Z,20.80
2018-07-23T05:26:39.070Z,19.83
2018-07-23T05:29:07.584Z,20.53
2018-07-23T05:31:36.289Z,19.47
2018-07-23T05:34:04.869Z,21.20
2018-07-23T05:36:33.386Z,19.43
2018-07-23T05:39:01.926Z,20.00
2018-07-23T05:41:30.412Z,21.27
2018-07-23T05:43:58.944Z,23.37
2018-07-23T05:46:27.522Z,21.83
2018-07-23T05:48:55.957Z,23.03
2018-07-23T05:51:55.812Z,23.27
2018-07-23T05:54:24.361Z,22.57
2018-07-23T05:56:56.891Z,21.67
2018-07-23T05:59:25.520Z,22.43
2018-07-23T06:01:53.961Z,23.97
2018-07-23T06:04:22.489Z,23.00
2018-07-23T06:06:51.162Z,23.63
2018-07-23T06:09:19.590Z,23.93
2018-07-23T06:11:50.385Z,23.60
2018-07-23T06:14:18.890Z,23.00
2018-07-23T06:16:47.374Z,19.00
2018-07-23T06:19:15.993Z,22.30
2018-07-23T06:21:44.734Z,17.10
2018-07-23T06:24:13.319Z,19.90
2018-07-23T06:26:41.921Z,16.33
2018-07-23T06:29:10.489Z,20.27
2018-07-23T06:31:38.953Z,17.37
2018-07-23T06:34:07.479Z,21.43
2018-07-23T06:36:36.044Z,21.00
2018-07-23T06:39:06.790Z,17.27
2018-07-23T06:41:35.437Z,21.03
2018-07-23T06:44:03.974Z,16.37
2018-07-23T06:46:32.479Z,19.00
2018-07-23T06:49:01.106Z,19.63
2018-07-23T06:51:29.704Z,14.10
2018-07-23T06:53:58.294Z,16.83
2018-07-23T06:56:26.771Z,16.17
2018-07-23T06:58:55.788Z,18.67
2018-07-23T07:01:24.343Z,14.77
2018-07-23T07:03:52.918Z,17.50
2018-07-23T07:06:21.455Z,15.10
2018-07-23T07:08:50.977Z,16.90
2018-07-23T07:11:19.486Z,13.23
2018-07-23T07:13:51.037Z,16.80
2018-07-23T07:16:19.527Z,13.23
2018-07-23T07:18:48.124Z,15.27
2018-07-23T07:21:16.681Z,15.87
2018-07-23T07:23:45.170Z,13.40
2018-07-23T07:26:13.640Z,15.60
2018-07-23T07:32:42.741Z,14.00
2018-07-23T07:35:11.274Z,12.03
2018-07-23T07:38:11.558Z,14.83
2018-07-23T07:40:40.479Z,12.10
2018-07-23T07:43:09.150Z,12.80
2018-07-23T07:45:37.936Z,10.27
2018-07-23T07:48:06.453Z,11.70
2018-07-23T07:50:34.880Z,9.20
2018-07-23T07:53:03.392Z,11.47
2018-07-23T07:56:09.785Z,9.20
2018-07-23T07:58:38.389Z,11.73
2018-07-23T08:01:06.904Z,9.97
2018-07-23T08:03:35.449Z,10.10
2018-07-23T08:06:04.007Z,8.53
2018-07-23T08:08:47.673Z,11.13
2018-07-23T08:11:16.234Z,8.23
2018-07-23T08:13:44.738Z,12.00
2018-07-23T08:16:13.156Z,10.73
2018-07-23T08:18:41.656Z,14.50
2018-07-23T08:21:10.247Z,15.20
2018-07-23T08:23:38.821Z,11.30
2018-07-23T08:26:07.462Z,14.77
2018-07-23T08:28:36.000Z,10.87
2018-07-23T08:31:04.525Z,16.00
2018-07-23T08:33:33.072Z,12.53
2018-07-23T08:36:02.496Z,15.80
2018-07-23T08:38:31.075Z,13.03
2018-07-23T08:40:59.651Z,17.33
2018-07-23T08:43:28.127Z,13.57
2018-07-23T08:45:56.689Z,18.33
2018-07-23T08:48:25.140Z,19.30
2018-07-23T08:50:53.743Z,13.40
2018-07-23T08:53:22.358Z,17.00
2018-07-23T08:55:51.025Z,19.60
2018-07-23T08:58:19.529Z,14.63
2018-07-23T09:00:48.063Z,17.53
2018-07-23T09:03:17.112Z,19.00
2018-07-23T09:05:45.573Z,16.20
2018-07-23T09:08:14.076Z,20.03
2018-07-23T09:10:42.633Z,16.90
2018-07-23T09:13:11.129Z,17.90
2018-07-23T09:15:39.596Z,13.53
2018-07-23T09:18:08.108Z,18.97
2018-07-23T09:20:36.654Z,15.83
2018-07-23T09:23:05.716Z,20.57
2018-07-23T09:25:39.658Z,17.43
2018-07-23T09:28:08.131Z,22.60
2018-07-23T09:30:41.837Z,15.10
2018-07-23T09:33:10.336Z,17.03
2018-07-23T09:35:38.783Z,16.27
2018-07-23T09:38:07.245Z,19.33
2018-07-23T09:40:35.750Z,16.37
2018-07-23T09:43:04.515Z,17.43
2018-07-23T09:45:33.590Z,14.77
2018-07-23T09:48:02.035Z,18.93
2018-07-23T09:50:30.492Z,14.40
2018-07-23T09:52:58.925Z,15.23
2018-07-23T09:55:27.376Z,20.20
2018-07-23T09:57:55.883Z,13.07
2018-07-23T10:03:37.043Z,15.73
2018-07-23T10:06:05.646Z,15.67
2018-07-23T10:08:34.075Z,19.10
2018-07-23T10:11:02.900Z,14.83
2018-07-23T10:13:31.830Z,15.73
2018-07-23T10:16:00.286Z,13.90
2018-07-23T10:18:28.791Z,13.97
2018-07-23T10:20:57.233Z,19.33
2018-07-23T10:23:25.685Z,17.40
2018-07-23T10:25:54.281Z,20.60
2018-07-23T10:28:22.871Z,15.10
2018-07-23T10:30:51.388Z,14.93
2018-07-23T10:33:19.884Z,15.10
2018-07-23T10:35:48.550Z,14.57
2018-07-23T10:38:17.461Z,14.47
2018-07-23T10:40:46.041Z,14.50
2018-07-23T10:43:14.487Z,13.73
2018-07-23T10:45:43.033Z,13.13
2018-07-23T10:48:11.583Z,13.47
2018-07-23T10:50:40.214Z,15.40
2018-07-23T10:53:08.762Z,12.80
2018-07-23T10:55:37.238Z,13.33
2018-07-23T10:58:05.997Z,13.50
2018-07-23T11:00:34.505Z,13.00
2018-07-23T11:03:03.313Z,13.20
2018-07-23T11:05:31.757Z,10.97
2018-07-23T11:08:00.385Z,10.53
2018-07-23T11:10:28.941Z,11.53
2018-07-23T11:12:57.516Z,13.23
2018-07-23T11:15:26.110Z,12.30
2018-07-23T11:17:54.586Z,10.47
2018-07-23T11:20:23.030Z,12.30
2018-07-23T11:22:51.485Z,14.00
2018-07-23T11:25:38.978Z,12.63
2018-07-23T11:27:48.633Z,10.80
2018-07-23T11:30:17.205Z,11.07
2018-07-23T11:32:45.787Z,11.33
2018-07-23T11:35:14.360Z,12.80
2018-07-23T11:37:42.930Z,10.73
2018-07-23T11:40:11.403Z,9.27
2018-07-23T11:42:39.924Z,7.77
2018-07-23T11:45:08.505Z,7.27
2018-07-23T11:47:37.107Z,8.20
2018-07-23T11:50:05.693Z,8.73
2018-07-23T11:52:34.225Z,7.17
2018-07-23T11:55:02.746Z,7.97
2018-07-23T11:57:32.601Z,9.17
2018-07-23T12:00:01.214Z,7.67
2018-07-23T12:02:29.698Z,7.97
2018-07-23T12:04:58.258Z,8.50
2018-07-23T12:07:26.768Z,8.57
2018-07-23T12:09:55.705Z,8.03
2018-07-23T12:12:24.232Z,7.43
2018-07-23T12:14:52.693Z,7.50
2018-07-23T12:17:21.433Z,7.30
2018-07-23T12:19:50.658Z,8.13
2018-07-23T12:22:36.709Z,8.13
2018-07-23T12:25:05.321Z,7.63
2018-07-23T12:27:33.849Z,8.10
2018-07-23T12:30:02.324Z,7.63
2018-07-23T12:32:30.956Z,6.07
2018-07-23T12:34:59.489Z,5.50
2018-07-23T12:37:27.970Z,5.90
2018-07-23T12:39:56.863Z,5.93
2018-07-23T12:42:25.353Z,6.97
2018-07-23T12:44:53.827Z,5.83
2018-07-23T12:47:22.376Z,5.80
2018-07-23T12:49:50.950Z,5.57
2018-07-23T12:52:19.500Z,5.57
2018-07-23T12:54:48.062Z,5.93
2018-07-23T12:57:16.694Z,5.43
2018-07-23T12:59:45.184Z,5.93
2018-07-23T13:02:13.673Z,5.70
2018-07-23T13:04:42.156Z,6.33
2018-07-23T13:07:10.683Z,5.60
2018-07-23T13:09:39.256Z,4.90
2018-07-23T13:12:07.948Z,5.80
2018-07-23T13:14:36.523Z,5.63
2018-07-23T13:17:05.169Z,5.23
2018-07-23T13:19:33.705Z,5.13
2018-07-23T13:22:02.193Z,4.93
2018-07-23T13:24:30.672Z,4.60
2018-07-23T13:26:59.136Z,5.30
2018-07-23T13:29:27.737Z,4.90
2018-07-23T13:31:56.327Z,4.80
2018-07-23T13:34:24.775Z,4.77
2018-07-23T13:36:53.283Z,4.97
2018-07-23T13:39:21.948Z,4.90
2018-07-23T13:41:50.429Z,5.57
2018-07-23T13:44:19.007Z,5.13
2018-07-23T13:46:48.234Z,4.53
2018-07-23T13:49:16.814Z,4.90
2018-07-23T13:51:45.258Z,5.50
2018-07-23T13:54:13.801Z,4.97
2018-07-23T13:56:42.278Z,5.60
2018-07-23T13:59:10.736Z,5.73
2018-07-23T14:01:39.347Z,4.43
2018-07-23T14:04:07.874Z,4.30
2018-07-23T14:06:38.633Z,4.70
2018-07-23T14:09:09.442Z,4.90
2018-07-23T14:11:37.937Z,4.73
2018-07-23T14:14:06.498Z,4.97
2018-07-23T14:16:35.306Z,5.27
2018-07-23T14:19:03.801Z,5.10
2018-07-23T14:21:32.328Z,5.07
2018-07-23T14:24:00.777Z,5.90
2018-07-23T14:26:29.258Z,5.00
2018-07-23T14:28:57.997Z,4.63
2018-07-23T14:31:26.566Z,4.87
2018-07-23T14:33:55.208Z,5.47
2018-07-23T14:36:23.733Z,5.10
2018-07-23T14:38:52.197Z,4.77
2018-07-23T14:41:20.701Z,5.57
2018-07-23T14:43:49.182Z,5.57
2018-07-23T14:46:17.617Z,5.43
2018-07-23T14:48:46.169Z,4.43
2018-07-23T14:51:20.216Z,5.07
2018-07-23T14:53:48.755Z,4.70
2018-07-23T14:56:17.274Z,4.20
2018-07-23T14:58:45.706Z,4.03
2018-07-23T15:01:14.300Z,3.80
2018-07-23T15:03:43.085Z,4.00
2018-07-23T15:06:11.667Z,3.47
2018-07-23T15:08:40.137Z,4.30
2018-07-23T15:11:08.573Z,4.83
2018-07-23T15:13:37.170Z,3.60
2018-07-23T15:16:05.775Z,3.77
2018-07-23T15:18:34.484Z,4.47
2018-07-23T15:21:03.089Z,4.27
2018-07-23T15:23:32.008Z,5.10
2018-07-23T15:26:00.684Z,4.27
2018-07-23T15:28:29.271Z,4.43
2018-07-23T15:30:58.118Z,4.87
2018-07-23T15:33:26.587Z,4.73
2018-07-23T15:35:55.029Z,4.30
2018-07-23T15:38:23.573Z,4.60
2018-07-23T15:40:52.131Z,4.10
2018-07-23T15:43:20.612Z,4.30
2018-07-23T15:45:49.270Z,4.17
2018-07-23T15:48:17.651Z,4.77
2018-07-23T15:50:46.248Z,4.00
2018-07-23T15:53:14.775Z,4.50
2018-07-23T15:55:43.194Z,4.83
2018-07-23T15:58:11.700Z,4.47
2018-07-23T16:00:40.328Z,4.27
2018-07-23T16:03:08.860Z,3.87
2018-07-23T16:05:37.281Z,4.00
2018-07-23T16:08:05.897Z,3.63
2018-07-23T16:10:34.475Z,3.50
2018-07-23T16:13:03.001Z,3.90
2018-07-23T16:15:31.548Z,3.63
2018-07-23T16:18:00.155Z,4.23
2018-07-23T16:20:28.632Z,4.00
2018-07-23T16:23:18.007Z,3.53
2018-07-23T16:25:46.465Z,4.00
2018-07-23T16:28:15.064Z,3.90
2018-07-23T16:30:43.552Z,3.67
2018-07-23T16:33:11.986Z,4.70
2018-07-23T16:35:40.479Z,3.53
2018-07-23T16:38:09.427Z,4.37
2018-07-23T16:40:37.961Z,4.57
2018-07-23T16:43:06.708Z,4.10
2018-07-23T16:45:35.276Z,4.40
2018-07-23T16:48:20.842Z,3.60
2018-07-23T16:50:49.568Z,4.13
2018-07-23T16:53:18.104Z,3.87
2018-07-23T16:55:46.581Z,4.77
2018-07-23T16:58:15.080Z,4.17
2018-07-23T17:00:43.562Z,3.87
2018-07-23T17:03:12.031Z,4.40
2018-07-23T17:05:40.629Z,3.93
2018-07-23T17:08:09.191Z,4.23
2018-07-23T17:10:37.700Z,4.50
2018-07-23T17:13:06.153Z,4.30
2018-07-23T17:15:34.672Z,3.83
2018-07-23T17:18:03.175Z,4.43
2018-07-23T17:20:31.700Z,4.20
2018-07-23T17:23:00.167Z,4.33
2018-07-23T17:25:28.719Z,3.80
2018-07-23T17:27:57.181Z,3.83
2018-07-23T17:30:33.359Z,3.77
2018-07-23T17:33:02.175Z,4.30
2018-07-23T17:35:30.689Z,4.50
2018-07-23T17:37:59.205Z,3.50
2018-07-23T17:40:27.698Z,4.00
2018-07-23T17:42:56.116Z,4.17
2018-07-23T17:45:24.638Z,4.00
2018-07-23T17:47:53.286Z,3.63
2018-07-23T17:50:21.835Z,4.00
2018-07-23T17:52:50.355Z,3.47
2018-07-23T17:55:18.777Z,3.80
2018-07-23T17:57:47.348Z,3.90
2018-07-23T18:00:15.808Z,3.90
2018-07-23T18:02:44.227Z,3.70
2018-07-23T18:05:12.796Z,3.83
2018-07-23T18:07:41.388Z,4.07
2018-07-23T18:10:09.949Z,4.23
2018-07-23T18:12:38.411Z,3.60
2018-07-23T18:15:06.998Z,4.23
2018-07-23T18:17:35.445Z,4.07
2018-07-23T18:20:04.153Z,4.27
2018-07-23T18:22:32.600Z,4.20
2018-07-23T18:25:12.243Z,3.70
2018-07-23T18:27:40.814Z,4.00
2018-07-23T18:30:09.297Z,3.50
2018-07-23T18:32:37.861Z,4.03
2018-07-23T18:35:07.057Z,3.43
2018-07-23T18:37:35.646Z,3.50
2018-07-23T18:40:04.221Z,3.47
2018-07-23T18:42:47.414Z,3.40
2018-07-23T18:45:15.896Z,3.47
2018-07-23T18:47:44.416Z,3.30
2018-07-23T18:50:12.879Z,3.57
2018-07-23T18:52:41.467Z,3.37
2018-07-23T18:55:10.009Z,4.17
2018-07-23T18:57:38.538Z,3.90
2018-07-23T19:00:07.253Z,4.27
2018-07-23T19:02:35.779Z,3.77
2018-07-23T19:05:04.534Z,4.57
2018-07-23T19:07:32.984Z,3.47
2018-07-23T19:10:01.532Z,3.43
2018-07-23T19:12:30.023Z,4.33
2018-07-23T19:14:58.510Z,4.67
2018-07-23T19:17:27.087Z,4.53
2018-07-23T19:19:55.596Z,5.20
2018-07-23T19:22:24.143Z,3.77
2018-07-23T19:24:53.036Z,5.00
2018-07-23T19:27:21.542Z,4.07
2018-07-23T19:29:50.004Z,3.90
2018-07-23T19:32:18.561Z,3.90
2018-07-23T19:34:47.079Z,5.13
2018-07-23T19:37:15.552Z,4.00
2018-07-23T19:39:44.077Z,5.07
2018-07-23T19:42:12.694Z,4.27
2018-07-23T19:44:41.223Z,3.97
2018-07-23T19:47:09.726Z,5.30
2018-07-23T19:49:38.442Z,4.43
2018-07-23T19:52:07.407Z,4.30
2018-07-23T19:54:36.057Z,4.70
2018-07-23T19:57:04.717Z,5.27
2018-07-23T19:59:33.199Z,5.57
2018-07-23T20:02:01.745Z,5.50
2018-07-23T20:04:30.444Z,4.97
2018-07-23T20:06:59.038Z,6.27
2018-07-23T20:09:27.666Z,4.97
2018-07-23T20:11:56.268Z,5.90
2018-07-23T20:14:24.843Z,3.93
2018-07-23T20:16:53.410Z,5.13
2018-07-23T20:19:21.945Z,4.90
2018-07-23T20:21:50.442Z,6.40
2018-07-23T20:24:18.985Z,5.03
2018-07-23T20:26:47.576Z,7.53
2018-07-23T20:29:16.121Z,5.50
2018-07-23T20:31:44.609Z,5.60
2018-07-23T20:34:13.212Z,4.40
2018-07-23T20:36:41.703Z,7.03
2018-07-23T20:39:10.294Z,4.90
2018-07-23T20:41:38.885Z,5.83
2018-07-23T20:44:07.659Z,5.80
2018-07-23T20:46:36.220Z,6.93
2018-07-23T20:49:04.766Z,5.03
2018-07-23T20:51:33.374Z,5.13
2018-07-23T20:54:02.018Z,7.00
2018-07-23T20:56:30.567Z,4.83
2018-07-23T20:58:59.220Z,6.07
2018-07-23T21:01:27.745Z,4.70
2018-07-23T21:03:56.348Z,5.63
2018-07-23T21:06:24.972Z,6.57
2018-07-23T21:08:53.564Z,7.20
2018-07-23T21:11:22.100Z,7.07
2018-07-23T21:13:50.587Z,5.90
2018-07-23T21:16:19.120Z,6.60
2018-07-23T21:18:47.713Z,7.93
2018-07-23T21:21:16.326Z,5.87
2018-07-23T21:23:44.928Z,5.93
2018-07-23T21:26:13.411Z,6.13
2018-07-23T21:28:42.086Z,5.40
2018-07-23T21:31:10.561Z,6.40
2018-07-23T21:33:39.239Z,7.83
2018-07-23T21:36:07.901Z,7.63
2018-07-23T21:38:36.422Z,6.20
2018-07-23T21:41:04.953Z,7.27
2018-07-23T21:43:35.473Z,6.57
2018-07-23T21:46:04.524Z,5.90
2018-07-23T21:48:33.168Z,6.60
2018-07-23T21:51:01.755Z,7.07
2018-07-23T21:54:05.623Z,6.80
2018-07-23T21:56:34.201Z,7.77
2018-07-23T21:59:02.757Z,7.63
2018-07-23T22:01:31.287Z,6.90
2018-07-23T22:03:59.885Z,6.07
2018-07-23T22:06:28.484Z,6.40
2018-07-23T22:08:57.137Z,6.77
2018-07-23T22:11:25.680Z,6.87
2018-07-23T22:13:54.270Z,7.50
2018-07-23T22:16:22.777Z,7.63
2018-07-23T22:18:51.259Z,8.03
2018-07-23T22:21:19.792Z,7.13
2018-07-23T22:23:48.278Z,6.73
2018-07-23T22:26:16.896Z,6.50
2018-07-23T22:28:45.395Z,6.73
2018-07-23T22:31:14.043Z,6.90
2018-07-23T22:33:42.727Z,8.30
2018-07-23T22:36:11.227Z,7.60
2018-07-23T22:38:39.756Z,8.30
2018-07-23T22:41:08.317Z,7.47
2018-07-23T22:43:36.851Z,6.73
2018-07-23T22:46:05.414Z,7.07
2018-07-23T22:48:34.046Z,6.83
2018-07-23T22:51:02.599Z,6.90
2018-07-23T22:53:31.156Z,6.60
2018-07-23T22:55:59.656Z,7.50
2018-07-23T22:58:28.257Z,7.63
2018-07-23T23:00:56.718Z,6.47
2018-07-23T23:03:25.201Z,6.10
2018-07-23T23:05:53.678Z,6.90
2018-07-23T23:08:22.152Z,6.43
2018-07-23T23:10:50.631Z,8.50
2018-07-23T23:13:19.229Z,7.00
2018-07-23T23:15:47.703Z,8.77
2018-07-23T23:18:16.119Z,8.93
2018-07-23T23:20:44.664Z,8.60
2018-07-23T23:23:13.141Z,9.40
2018-07-23T23:25:41.748Z,9.83
2018-07-23T23:28:10.198Z,7.73
2018-07-23T23:30:38.809Z,7.83
2018-07-23T23:33:07.277Z,7.00
2018-07-23T23:35:35.742Z,7.43
2018-07-23T23:38:04.356Z,7.47
2018-07-23T23:40:32.923Z,7.73
2018-07-23T23:43:01.349Z,7.13
2018-07-23T23:45:29.900Z,7.53
2018-07-23T23:47:58.356Z,7.90
2018-07-23T23:50:26.783Z,7.97
2018-07-23T23:52:55.617Z,8.27
2018-07-23T23:55:24.121Z,7.90
2018-07-23T23:57:52.595Z,9.00
